Adams City, Colorado
Current Conditions -  °F | °C
As of 2:53 PM on Thursday 20 Nov 2014 (Local Time) from KDEN Reporting Station
Broken Clouds Broken Clouds  
Wind Chill: 45°   Ceiling: 22000
Heat Index: 47°   Visibility: 10mi
Dew Point: 23°   Wind: 5mph
Humidity: 39%   Direction: 330°NNW
Pressure: 29.94"   Gusts: NA
Location:  39.8641°N, 104.821°W
Report Text: KDEN 202153Z 33004KT 10SM SCT110 SCT140 BKN220 08/M05 A2994 RMK AO2 SLP133 T00831050
Loading
Personal Weather Stations






























Interactive Weather Map New forecast layout! Learn more

10-Day Weather Forecast

Advertisements
Track Severe Weather on mobile